createdAt,value
2018-09-21T00:02:16.500Z,5.11
2018-09-21T00:04:44.186Z,5.04
2018-09-21T00:07:11.893Z,4.98
2018-09-21T00:09:39.608Z,4.90
2018-09-21T00:12:07.293Z,4.85
2018-09-21T00:14:34.961Z,4.80
2018-09-21T00:17:02.643Z,4.77
2018-09-21T00:19:30.360Z,4.78
2018-09-21T00:21:58.035Z,4.80
2018-09-21T00:24:25.764Z,4.78
2018-09-21T00:26:53.488Z,4.75
2018-09-21T00:29:21.185Z,4.77
2018-09-21T00:31:48.857Z,4.73
2018-09-21T00:34:16.589Z,4.76
2018-09-21T00:36:44.304Z,4.71
2018-09-21T00:39:12.007Z,4.66
2018-09-21T00:41:39.868Z,4.58
2018-09-21T00:44:07.964Z,4.52
2018-09-21T00:46:36.032Z,4.49
2018-09-21T00:49:03.893Z,4.48
2018-09-21T00:51:31.732Z,4.42
2018-09-21T00:53:59.480Z,4.51
2018-09-21T00:56:27.242Z,4.65
2018-09-21T00:58:55.020Z,4.68
2018-09-21T01:01:22.692Z,4.76
2018-09-21T01:03:50.400Z,4.85
2018-09-21T01:06:18.093Z,4.87
2018-09-21T01:08:45.785Z,4.83
2018-09-21T01:11:14.177Z,4.84
2018-09-21T01:13:41.884Z,4.82
2018-09-21T01:16:09.564Z,4.76
2018-09-21T01:18:37.301Z,4.77
2018-09-21T01:21:05.092Z,4.84
2018-09-21T01:23:32.776Z,4.85
2018-09-21T01:26:00.629Z,4.86
2018-09-21T01:28:28.311Z,4.85
2018-09-21T01:30:55.979Z,4.41
2018-09-21T01:33:23.665Z,4.67
2018-09-21T01:35:51.456Z,4.64
2018-09-21T01:38:19.147Z,4.65
2018-09-21T01:40:46.848Z,4.68
2018-09-21T01:43:14.513Z,4.79
2018-09-21T01:45:42.184Z,4.92
2018-09-21T01:48:09.869Z,5.07
2018-09-21T01:50:37.556Z,5.14
2018-09-21T01:53:05.312Z,5.23
2018-09-21T01:55:33.009Z,5.28
2018-09-21T01:58:00.698Z,5.27
2018-09-21T02:00:28.407Z,5.38
2018-09-21T02:02:56.090Z,5.46
2018-09-21T02:05:23.800Z,5.51
2018-09-21T02:07:51.480Z,5.65
2018-09-21T02:10:19.192Z,5.64
2018-09-21T02:12:46.948Z,5.59
2018-09-21T02:15:14.632Z,5.61
2018-09-21T02:17:42.434Z,5.74
2018-09-21T02:20:10.144Z,5.90
2018-09-21T02:22:37.908Z,6.06
2018-09-21T02:25:05.632Z,6.08
2018-09-21T02:27:33.312Z,6.02
2018-09-21T02:30:01.056Z,6.06
2018-09-21T02:32:28.784Z,6.07
2018-09-21T02:34:56.536Z,6.04
2018-09-21T02:37:24.252Z,6.05
2018-09-21T02:39:51.979Z,6.03
2018-09-21T02:42:19.732Z,6.18
2018-09-21T02:44:47.423Z,6.18
2018-09-21T02:47:15.095Z,6.28
2018-09-21T02:49:42.823Z,6.30
2018-09-21T02:52:10.501Z,6.36
2018-09-21T02:54:38.203Z,6.30
2018-09-21T02:57:06.080Z,6.27
2018-09-21T02:59:33.757Z,6.19
2018-09-21T03:02:01.448Z,6.14
2018-09-21T03:04:29.203Z,6.14
2018-09-21T03:06:56.925Z,6.26
2018-09-21T03:09:24.701Z,6.29
2018-09-21T03:11:52.452Z,6.38
2018-09-21T03:14:20.172Z,6.48
2018-09-21T03:16:47.889Z,6.59
2018-09-21T03:19:15.589Z,6.64
2018-09-21T03:21:43.280Z,6.55
2018-09-21T03:24:10.980Z,6.51
2018-09-21T03:26:38.735Z,6.62
2018-09-21T03:29:06.427Z,6.59
2018-09-21T03:31:34.144Z,6.60
2018-09-21T03:34:01.846Z,6.58
2018-09-21T03:36:29.577Z,6.52
2018-09-21T03:38:57.261Z,6.41
2018-09-21T03:41:24.970Z,6.37
2018-09-21T03:43:52.690Z,6.28
2018-09-21T03:46:20.396Z,6.22
2018-09-21T03:48:48.196Z,6.22
2018-09-21T03:51:16.003Z,6.14
2018-09-21T03:53:43.705Z,6.04
2018-09-21T03:56:11.417Z,6.03
2018-09-21T03:58:39.215Z,5.98
2018-09-21T04:01:07.088Z,5.94
2018-09-21T04:03:34.746Z,5.90
2018-09-21T04:06:02.460Z,5.88
2018-09-21T04:08:30.145Z,6.02
2018-09-21T04:10:57.920Z,5.95
2018-09-21T04:13:25.597Z,5.94
2018-09-21T04:15:53.337Z,6.06
2018-09-21T04:18:21.073Z,6.14
2018-09-21T04:20:48.780Z,6.18
2018-09-21T04:23:16.460Z,6.16
2018-09-21T04:25:44.171Z,6.19
2018-09-21T04:28:15.014Z,6.24
2018-09-21T04:30:45.658Z,6.24
2018-09-21T04:33:14.083Z,6.24
2018-09-21T04:35:41.777Z,6.33
2018-09-21T04:38:09.463Z,6.37
2018-09-21T04:40:37.139Z,6.46
2018-09-21T04:43:04.884Z,6.46
2018-09-21T04:45:32.569Z,6.49
2018-09-21T04:48:20.537Z,6.62
2018-09-21T04:50:48.232Z,6.72
2018-09-21T04:53:15.926Z,6.73
2018-09-21T04:55:43.640Z,6.85
2018-09-21T04:58:11.300Z,6.96
2018-09-21T05:00:38.968Z,7.03
2018-09-21T05:03:06.772Z,7.14
2018-09-21T05:05:34.479Z,7.18
2018-09-21T05:08:02.283Z,7.26
2018-09-21T05:10:30.125Z,7.30
2018-09-21T05:12:57.821Z,7.36
2018-09-21T05:15:25.524Z,7.46
2018-09-21T05:17:53.253Z,7.62
2018-09-21T05:20:20.935Z,7.64
2018-09-21T05:22:48.603Z,7.65
2018-09-21T05:25:16.370Z,7.64
2018-09-21T05:27:44.033Z,7.61
2018-09-21T05:30:11.729Z,7.60
2018-09-21T05:32:39.431Z,7.67
2018-09-21T05:35:07.227Z,7.74
2018-09-21T05:37:34.940Z,7.90
2018-09-21T05:40:02.660Z,8.02
2018-09-21T05:42:30.373Z,8.11
2018-09-21T05:44:58.045Z,8.24
2018-09-21T05:47:25.734Z,8.29
2018-09-21T05:49:53.648Z,8.37
2018-09-21T05:52:21.366Z,8.47
2018-09-21T05:54:49.041Z,8.60
2018-09-21T05:57:16.730Z,8.76
2018-09-21T05:59:44.429Z,8.87
2018-09-21T06:02:12.187Z,8.92
2018-09-21T06:04:39.839Z,8.96
2018-09-21T06:07:07.545Z,9.05
2018-09-21T06:09:35.216Z,9.06
2018-09-21T06:12:02.901Z,9.10
2018-09-21T06:14:30.637Z,9.05
2018-09-21T06:16:58.320Z,9.06
2018-09-21T06:19:26.016Z,9.17
2018-09-21T06:21:53.700Z,9.20
2018-09-21T06:24:21.442Z,9.21
2018-09-21T06:26:49.121Z,9.21
2018-09-21T06:29:16.799Z,9.20
2018-09-21T06:31:44.501Z,9.30
2018-09-21T06:34:12.193Z,9.31
2018-09-21T06:36:39.904Z,9.46
2018-09-21T06:39:09.616Z,9.76
2018-09-21T06:41:37.892Z,10.11
2018-09-21T06:44:06.534Z,10.40
2018-09-21T06:46:34.254Z,10.41
2018-09-21T06:49:01.940Z,10.47
2018-09-21T06:51:29.604Z,10.59
2018-09-21T06:53:57.263Z,10.56
2018-09-21T06:56:24.994Z,10.58
2018-09-21T06:58:52.699Z,10.61
2018-09-21T07:01:20.381Z,10.64
2018-09-21T07:03:48.179Z,10.65
2018-09-21T07:06:15.896Z,10.69
2018-09-21T07:08:43.556Z,10.78
2018-09-21T07:11:11.346Z,10.80
2018-09-21T07:13:39.035Z,10.87
2018-09-21T07:16:06.849Z,10.88
2018-09-21T07:18:34.516Z,10.88
2018-09-21T07:21:02.209Z,11.16
2018-09-21T07:23:29.885Z,11.63
2018-09-21T07:25:57.639Z,12.07
2018-09-21T07:28:25.335Z,12.50
2018-09-21T07:30:53.069Z,12.80
2018-09-21T07:33:20.794Z,13.03
2018-09-21T07:35:48.618Z,13.29
2018-09-21T07:38:16.272Z,13.58
2018-09-21T07:40:43.947Z,13.72
2018-09-21T07:43:11.684Z,13.98
2018-09-21T07:45:39.396Z,14.21
2018-09-21T07:48:07.058Z,14.44
2018-09-21T07:50:34.844Z,14.65
2018-09-21T07:53:02.675Z,14.55
2018-09-21T07:55:30.353Z,14.36
2018-09-21T07:57:58.038Z,14.09
2018-09-21T08:00:25.748Z,13.89
2018-09-21T08:02:53.425Z,13.99
2018-09-21T08:05:27.339Z,13.89
2018-09-21T08:07:55.230Z,13.80
2018-09-21T08:10:22.993Z,13.70
2018-09-21T08:12:50.817Z,13.46
2018-09-21T08:15:18.507Z,13.31
2018-09-21T08:17:46.702Z,13.15
2018-09-21T08:20:14.428Z,13.18
2018-09-21T08:22:42.141Z,13.16
2018-09-21T08:25:09.930Z,13.27
2018-09-21T08:27:37.624Z,13.31
2018-09-21T08:30:05.417Z,13.44
2018-09-21T08:32:33.136Z,13.57
2018-09-21T08:35:00.921Z,13.64
2018-09-21T08:37:28.627Z,13.94
2018-09-21T08:39:56.380Z,14.06
2018-09-21T08:42:24.933Z,14.26
2018-09-21T08:44:52.640Z,14.67
2018-09-21T08:47:20.347Z,14.98
2018-09-21T08:49:48.016Z,15.32
2018-09-21T08:52:15.711Z,15.72
2018-09-21T08:54:43.392Z,15.83
2018-09-21T08:57:11.113Z,15.81
2018-09-21T08:59:38.820Z,15.92
2018-09-21T09:02:06.549Z,16.26
2018-09-21T09:04:34.228Z,16.47
2018-09-21T09:07:01.961Z,16.71
2018-09-21T09:09:29.657Z,16.82
2018-09-21T09:11:57.366Z,16.93
2018-09-21T09:14:25.052Z,17.05
2018-09-21T09:16:52.772Z,17.15
2018-09-21T09:19:20.633Z,16.97
2018-09-21T09:21:48.718Z,17.24
2018-09-21T09:24:16.431Z,17.31
2018-09-21T09:26:44.186Z,17.34
2018-09-21T09:29:11.872Z,17.52
2018-09-21T09:31:39.547Z,17.75
2018-09-21T09:34:07.731Z,17.76
2018-09-21T09:36:35.412Z,17.92
2018-09-21T09:39:04.029Z,18.21
2018-09-21T09:41:31.702Z,18.35
2018-09-21T09:43:59.400Z,18.03
2018-09-21T09:46:27.100Z,17.98
2018-09-21T09:48:54.917Z,17.98
2018-09-21T09:51:22.547Z,17.73
2018-09-21T09:53:50.246Z,17.70
2018-09-21T09:56:17.992Z,17.57
2018-09-21T09:58:45.758Z,17.40
2018-09-21T10:01:13.463Z,17.24
2018-09-21T10:03:41.245Z,17.09
2018-09-21T10:06:09.064Z,16.83
2018-09-21T10:08:36.802Z,16.60
2018-09-21T10:11:04.508Z,16.46
2018-09-21T10:13:32.182Z,16.37
2018-09-21T10:15:59.951Z,16.12
2018-09-21T10:18:27.636Z,16.30
2018-09-21T10:20:55.386Z,16.35
2018-09-21T10:23:23.093Z,16.15
2018-09-21T10:25:50.776Z,15.83
2018-09-21T10:28:18.846Z,15.77
2018-09-21T10:30:46.742Z,15.65
2018-09-21T10:33:14.561Z,15.70
2018-09-21T10:35:42.497Z,15.95
2018-09-21T10:38:10.306Z,15.80
2018-09-21T10:40:38.307Z,15.97
2018-09-21T10:43:06.260Z,15.74
2018-09-21T10:45:34.053Z,15.47
2018-09-21T10:48:01.976Z,15.37
2018-09-21T10:50:29.841Z,14.99
2018-09-21T10:52:57.691Z,14.80
2018-09-21T10:55:25.602Z,14.72
2018-09-21T10:57:53.459Z,14.67
2018-09-21T11:00:21.313Z,14.60
2018-09-21T11:02:49.234Z,14.52
2018-09-21T11:05:17.125Z,14.47
2018-09-21T11:07:45.058Z,14.36
2018-09-21T11:10:12.963Z,14.40
2018-09-21T11:12:40.801Z,14.26
2018-09-21T11:15:08.682Z,14.02
2018-09-21T11:17:36.601Z,13.87
2018-09-21T11:20:04.532Z,13.74
2018-09-21T11:22:32.470Z,13.75
2018-09-21T11:25:00.313Z,13.76
2018-09-21T11:27:28.171Z,13.66
2018-09-21T11:29:56.036Z,13.66
2018-09-21T11:32:23.905Z,13.61
2018-09-21T11:34:51.794Z,13.53
2018-09-21T11:37:19.504Z,13.57
2018-09-21T11:39:47.190Z,13.58
2018-09-21T11:42:18.244Z,13.59
2018-09-21T11:44:45.938Z,13.59
2018-09-21T11:47:13.797Z,13.59
2018-09-21T11:49:41.422Z,13.70
2018-09-21T11:52:09.140Z,13.72
2018-09-21T11:54:36.930Z,13.77
2018-09-21T11:57:04.639Z,13.84
2018-09-21T11:59:32.364Z,13.84
2018-09-21T12:02:00.117Z,13.79
2018-09-21T12:04:27.826Z,13.77
2018-09-21T12:06:55.515Z,13.80
2018-09-21T12:09:23.214Z,13.80
2018-09-21T12:11:50.905Z,13.81
2018-09-21T12:14:18.579Z,13.81
2018-09-21T12:16:46.405Z,13.82
2018-09-21T12:19:14.044Z,13.78
2018-09-21T12:21:41.692Z,13.80
2018-09-21T12:24:09.424Z,13.85
2018-09-21T12:26:37.114Z,13.91
2018-09-21T12:29:04.785Z,13.88
2018-09-21T12:31:32.467Z,13.79
2018-09-21T12:34:00.205Z,13.85
2018-09-21T12:36:27.990Z,13.96
2018-09-21T12:38:55.676Z,13.96
2018-09-21T12:41:23.564Z,13.79
2018-09-21T12:43:51.312Z,13.71
2018-09-21T12:46:27.635Z,13.76
2018-09-21T12:48:59.777Z,13.72
2018-09-21T12:51:27.471Z,13.77
2018-09-21T12:53:55.503Z,13.71
2018-09-21T12:56:23.559Z,13.73
2018-09-21T12:58:51.600Z,13.64
2018-09-21T13:01:19.324Z,13.54
2018-09-21T13:03:47.256Z,13.42
2018-09-21T13:06:14.992Z,13.31
2018-09-21T13:08:42.785Z,13.19
2018-09-21T13:11:10.473Z,13.12
2018-09-21T13:13:38.175Z,13.02
2018-09-21T13:16:05.910Z,12.87
2018-09-21T13:18:33.617Z,12.85
2018-09-21T13:21:01.288Z,12.87
2018-09-21T13:23:29.216Z,12.79
2018-09-21T13:25:56.924Z,12.67
2018-09-21T13:28:24.608Z,12.62
2018-09-21T13:30:52.358Z,12.56
2018-09-21T13:33:20.094Z,12.59
2018-09-21T13:35:47.784Z,12.56
2018-09-21T13:38:15.448Z,12.51
2018-09-21T13:40:43.177Z,12.40
2018-09-21T13:43:10.883Z,12.33
2018-09-21T13:45:38.582Z,12.31
2018-09-21T13:48:06.316Z,12.29
2018-09-21T13:50:33.990Z,12.18
2018-09-21T13:53:01.727Z,11.95
2018-09-21T13:55:29.408Z,11.90
2018-09-21T13:57:57.097Z,11.88
2018-09-21T14:00:24.878Z,11.82
2018-09-21T14:02:52.568Z,11.77
2018-09-21T14:05:20.346Z,11.71
2018-09-21T14:07:48.007Z,11.68
2018-09-21T14:10:15.741Z,11.70
2018-09-21T14:12:43.429Z,11.72
2018-09-21T14:15:11.093Z,11.72
2018-09-21T14:17:38.805Z,11.71
2018-09-21T14:20:06.916Z,11.72
2018-09-21T14:22:34.665Z,11.71
2018-09-21T14:25:02.388Z,11.68
2018-09-21T14:27:30.124Z,11.65
2018-09-21T14:29:57.926Z,11.64
2018-09-21T14:32:25.627Z,11.65
2018-09-21T14:34:53.352Z,11.63
2018-09-21T14:37:21.028Z,11.63
2018-09-21T14:39:48.709Z,11.63
2018-09-21T14:42:16.406Z,11.63
2018-09-21T14:44:44.229Z,11.63
2018-09-21T14:47:12.258Z,11.63
2018-09-21T14:49:39.944Z,11.60
2018-09-21T14:52:07.671Z,11.62
2018-09-21T14:54:36.160Z,11.63
2018-09-21T14:57:03.839Z,11.64
2018-09-21T14:59:31.508Z,11.67
2018-09-21T15:01:59.253Z,11.67
2018-09-21T15:04:26.936Z,11.69
2018-09-21T15:06:54.583Z,11.70
2018-09-21T15:09:22.247Z,11.71
2018-09-21T15:11:49.945Z,11.71
2018-09-21T15:14:17.672Z,11.72
2018-09-21T15:16:45.335Z,11.72
2018-09-21T15:19:13.120Z,11.73
2018-09-21T15:21:41.094Z,11.73
2018-09-21T15:24:08.809Z,11.77
2018-09-21T15:26:36.591Z,11.75
2018-09-21T15:29:04.304Z,11.75
2018-09-21T15:31:31.965Z,11.72
2018-09-21T15:33:59.671Z,11.72
2018-09-21T15:36:27.340Z,11.70
2018-09-21T15:38:55.056Z,11.70
2018-09-21T15:41:22.756Z,11.69
2018-09-21T15:43:50.424Z,11.70
2018-09-21T15:46:18.144Z,11.71
2018-09-21T15:48:45.886Z,11.72
2018-09-21T15:51:13.559Z,11.73
2018-09-21T15:53:41.309Z,11.75
2018-09-21T15:56:09.063Z,11.78
2018-09-21T15:58:36.785Z,11.81
2018-09-21T16:01:04.461Z,11.84
2018-09-21T16:03:32.148Z,11.82
2018-09-21T16:05:59.924Z,11.84
2018-09-21T16:08:27.571Z,11.87
2018-09-21T16:10:55.231Z,11.90
2018-09-21T16:13:22.915Z,11.98
2018-09-21T16:15:50.587Z,12.04
2018-09-21T16:18:18.316Z,12.13
2018-09-21T16:20:46.005Z,12.21
2018-09-21T16:23:13.675Z,12.28
2018-09-21T16:25:41.368Z,12.35
2018-09-21T16:28:09.020Z,12.42
2018-09-21T16:30:36.704Z,12.48
2018-09-21T16:33:04.401Z,12.53
2018-09-21T16:35:32.104Z,12.60
2018-09-21T16:37:59.793Z,12.64
2018-09-21T16:40:27.496Z,12.68
2018-09-21T16:42:55.265Z,12.71
2018-09-21T16:45:22.932Z,12.76
2018-09-21T16:47:50.603Z,12.78
2018-09-21T16:50:18.300Z,12.81
2018-09-21T16:52:45.988Z,12.84
2018-09-21T16:55:13.679Z,12.88
2018-09-21T16:57:41.435Z,12.93
2018-09-21T17:00:09.288Z,12.96
2018-09-21T17:02:37.162Z,13.04
2018-09-21T17:05:05.115Z,13.11
2018-09-21T17:07:32.768Z,13.15
2018-09-21T17:10:00.441Z,13.21
2018-09-21T17:12:28.321Z,13.27
2018-09-21T17:14:56.025Z,13.31
2018-09-21T17:17:23.685Z,13.37
2018-09-21T17:19:51.370Z,13.43
2018-09-21T17:22:19.041Z,13.46
2018-09-21T17:24:46.697Z,13.49
2018-09-21T17:27:14.433Z,13.52
2018-09-21T17:29:42.129Z,13.54
2018-09-21T17:32:09.824Z,13.57
2018-09-21T17:34:37.556Z,13.59
2018-09-21T17:37:05.307Z,13.63
2018-09-21T17:39:32.942Z,13.67
2018-09-21T17:42:00.625Z,13.70
2018-09-21T17:44:28.316Z,13.71
2018-09-21T17:46:56.385Z,13.75
2018-09-21T17:49:24.065Z,13.78
2018-09-21T17:51:51.774Z,13.79
2018-09-21T17:54:19.436Z,13.79
2018-09-21T17:56:47.115Z,13.85
2018-09-21T17:59:14.819Z,13.88
2018-09-21T18:01:42.516Z,13.90
2018-09-21T18:04:10.193Z,13.93
2018-09-21T18:06:37.893Z,13.95
2018-09-21T18:09:07.575Z,13.97
2018-09-21T18:11:35.272Z,13.94
2018-09-21T18:14:02.999Z,14.02
2018-09-21T18:16:30.856Z,14.03
2018-09-21T18:18:58.521Z,14.05
2018-09-21T18:21:26.188Z,14.06
2018-09-21T18:23:53.900Z,14.08
2018-09-21T18:26:21.615Z,14.12
2018-09-21T18:28:49.277Z,14.14
2018-09-21T18:31:17.009Z,14.15
2018-09-21T18:33:44.720Z,14.17
2018-09-21T18:36:12.385Z,14.20
2018-09-21T18:38:40.189Z,14.30
2018-09-21T18:41:07.860Z,14.39
2018-09-21T18:43:35.568Z,14.51
2018-09-21T18:46:03.263Z,14.57
2018-09-21T18:48:30.976Z,14.60
2018-09-21T18:50:58.680Z,14.62
2018-09-21T18:53:26.345Z,14.69
2018-09-21T18:55:54.040Z,14.73
2018-09-21T18:58:21.777Z,14.74
2018-09-21T19:00:49.500Z,14.75
2018-09-21T19:03:17.177Z,14.74
2018-09-21T19:05:44.859Z,14.74
2018-09-21T19:08:12.552Z,14.78
2018-09-21T19:10:40.248Z,14.80
2018-09-21T19:13:07.904Z,14.83
2018-09-21T19:15:35.582Z,14.85
2018-09-21T19:18:03.284Z,14.88
2018-09-21T19:20:30.992Z,14.88
2018-09-21T19:22:58.700Z,14.90
2018-09-21T19:25:26.377Z,14.90
2018-09-21T19:27:54.049Z,14.90
2018-09-21T19:30:21.740Z,14.91
2018-09-21T19:32:49.434Z,14.92
2018-09-21T19:35:17.113Z,14.91
2018-09-21T19:37:44.834Z,14.88
2018-09-21T19:40:12.507Z,14.88
2018-09-21T19:42:40.176Z,14.86
2018-09-21T19:45:08.083Z,14.86
2018-09-21T19:47:35.624Z,14.83
2018-09-21T19:50:03.813Z,14.82
2018-09-21T19:52:31.473Z,14.82
2018-09-21T19:54:59.219Z,14.80
2018-09-21T19:57:26.918Z,14.79
2018-09-21T19:59:54.572Z,14.79
2018-09-21T20:02:22.312Z,14.78
2018-09-21T20:04:50.162Z,14.77
2018-09-21T20:07:17.843Z,14.76
2018-09-21T20:09:45.501Z,14.75
2018-09-21T20:12:13.617Z,14.72
2018-09-21T20:14:41.337Z,14.71
2018-09-21T20:17:09.027Z,14.70
2018-09-21T20:19:36.697Z,14.67
2018-09-21T20:22:04.978Z,14.65
2018-09-21T20:24:32.627Z,14.65
2018-09-21T20:27:00.324Z,14.62
2018-09-21T20:29:28.028Z,14.60
2018-09-21T20:32:01.409Z,14.57
2018-09-21T20:34:29.095Z,14.55
2018-09-21T20:36:56.772Z,14.54
2018-09-21T20:39:24.444Z,14.55
2018-09-21T20:41:52.138Z,14.56
2018-09-21T20:44:19.813Z,14.54
2018-09-21T20:46:47.524Z,14.52
2018-09-21T20:49:15.209Z,14.50
2018-09-21T20:51:42.869Z,14.48
2018-09-21T20:54:10.595Z,14.46
2018-09-21T20:56:38.264Z,14.46
2018-09-21T20:59:05.929Z,14.45
2018-09-21T21:01:33.607Z,14.42
2018-09-21T21:04:01.264Z,14.41
2018-09-21T21:06:28.936Z,14.39
2018-09-21T21:08:56.612Z,14.37
2018-09-21T21:11:24.268Z,14.35
2018-09-21T21:13:51.951Z,14.34
2018-09-21T21:16:19.632Z,14.35
2018-09-21T21:18:47.345Z,14.34
2018-09-21T21:21:15.011Z,14.33
2018-09-21T21:23:42.696Z,14.31
2018-09-21T21:26:10.416Z,14.29
2018-09-21T21:28:38.124Z,14.29
2018-09-21T21:31:05.801Z,14.26
2018-09-21T21:33:33.475Z,14.25
2018-09-21T21:36:01.162Z,14.25
2018-09-21T21:38:28.826Z,14.25
2018-09-21T21:40:56.531Z,14.23
2018-09-21T21:43:24.255Z,14.24
2018-09-21T21:45:52.091Z,14.24
2018-09-21T21:48:19.816Z,14.24
2018-09-21T21:50:47.480Z,14.25
2018-09-21T21:53:15.148Z,14.20
2018-09-21T21:55:42.872Z,14.23
2018-09-21T21:58:10.527Z,14.25
2018-09-21T22:00:43.756Z,14.23
2018-09-21T22:03:11.469Z,14.22
2018-09-21T22:05:39.132Z,14.22
2018-09-21T22:08:06.836Z,14.22
2018-09-21T22:10:34.905Z,14.22
2018-09-21T22:13:08.061Z,14.09
2018-09-21T22:15:35.731Z,14.20
2018-09-21T22:18:03.400Z,14.20
2018-09-21T22:20:31.098Z,14.20
2018-09-21T22:22:58.776Z,14.19
2018-09-21T22:25:26.514Z,14.17
2018-09-21T22:27:54.212Z,14.17
2018-09-21T22:30:21.864Z,14.14
2018-09-21T22:32:49.614Z,14.14
2018-09-21T22:35:17.303Z,14.13
2018-09-21T22:37:44.958Z,14.14
2018-09-21T22:40:12.651Z,14.15
2018-09-21T22:42:40.316Z,14.14
2018-09-21T22:45:08.044Z,14.12
2018-09-21T22:47:35.772Z,14.06
2018-09-21T22:50:03.494Z,14.02
2018-09-21T22:52:31.187Z,13.97
2018-09-21T22:54:58.884Z,13.95
2018-09-21T22:57:26.624Z,13.92
2018-09-21T22:59:54.284Z,13.89
2018-09-21T23:02:21.975Z,13.85
2018-09-21T23:04:49.708Z,13.82
2018-09-21T23:07:17.368Z,13.81
2018-09-21T23:09:45.046Z,13.79
2018-09-21T23:12:12.783Z,13.79
2018-09-21T23:14:40.468Z,13.77
2018-09-21T23:17:08.135Z,13.74
2018-09-21T23:19:35.876Z,13.75
2018-09-21T23:22:03.656Z,13.72
2018-09-21T23:24:31.327Z,13.69
2018-09-21T23:26:59.023Z,13.68
2018-09-21T23:29:26.696Z,13.66
2018-09-21T23:31:54.432Z,13.62
2018-09-21T23:34:22.209Z,13.61
2018-09-21T23:36:49.904Z,13.57
2018-09-21T23:39:17.643Z,13.56
2018-09-21T23:41:45.328Z,13.51
2018-09-21T23:44:13.000Z,13.45
2018-09-21T23:46:40.668Z,13.42
2018-09-21T23:49:08.399Z,13.37
2018-09-21T23:51:36.061Z,13.34
2018-09-21T23:54:03.818Z,13.28
2018-09-21T23:56:31.616Z,13.20
2018-09-21T23:58:59.284Z,13.17
